Time;durP1;ratioP1;P1;durP2;ratioP2;P2;SDS_P1;SDS_P2;PMS_P1;PMS_P2;Temp;Humidity;BMP_temperature;BMP_pressure;BME280_temperature;BME280_humidity;BME280_pressure;Samples;Min_cycle;Max_cycle;Signal;HPM_P1;HPM_P2
2023/07/11 00:01:31;;;;;;;5.50;1.40;;;;;;;;;;5086838;28;20024;-44
2023/07/11 00:03:58;;;;;;;3.38;1.45;;;;;;;;;;5093494;28;20034;-43
2023/07/11 00:06:24;;;;;;;5.00;1.20;;;;;;;;;;5085554;28;20032;-43
2023/07/11 00:08:51;;;;;;;5.22;1.50;;;;;;;;;;5104335;28;20028;-42
2023/07/11 00:11:19;;;;;;;4.82;1.80;;;;;;;;;;5104460;28;20083;-49
2023/07/11 00:13:45;;;;;;;5.00;1.88;;;;;;;;;;5104313;28;20056;-48
2023/07/11 00:16:13;;;;;;;5.05;1.58;;;;;;;;;;5104204;28;20028;-47
2023/07/11 00:18:39;;;;;;;4.30;1.40;;;;;;;;;;5104254;28;20032;-54
2023/07/11 00:21:06;;;;;;;3.63;1.55;;;;;;;;;;5104377;28;20091;-54
2023/07/11 00:23:33;;;;;;;6.55;1.80;;;;;;;;;;5095255;28;20085;-46
2023/07/11 00:26:00;;;;;;;4.63;2.00;;;;;;;;;;5070900;28;20052;-44
2023/07/11 00:28:28;;;;;;;5.47;2.00;;;;;;;;;;5084279;28;20036;-41
2023/07/11 00:30:54;;;;;;;5.70;2.30;;;;;;;;;;5084021;28;20070;-40
2023/07/11 00:33:21;;;;;;;8.20;2.60;;;;;;;;;;5084109;28;20317;-51
2023/07/11 00:35:51;;;;;;;4.80;2.42;;;;;;;;;;5084563;28;20261;-45
2023/07/11 00:38:21;;;;;;;5.18;2.10;;;;;;;;;;5084282;28;20056;-43
2023/07/11 00:40:50;;;;;;;6.75;2.28;;;;;;;;;;5083406;28;20047;-41
2023/07/11 00:43:18;;;;;;;4.60;1.58;;;;;;;;;;5082593;28;20074;-39
2023/07/11 00:46:03;;;;;;;5.05;1.83;;;;;;;;;;5083611;28;20439;-42
2023/07/11 00:48:34;;;;;;;2.72;1.35;;;;;;;;;;5084396;28;20228;-41
2023/07/11 00:51:00;;;;;;;5.07;1.65;;;;;;;;;;5084314;28;20048;-47
2023/07/11 00:53:28;;;;;;;5.68;1.30;;;;;;;;;;5084592;28;20021;-49
2023/07/11 00:55:55;;;;;;;3.55;1.42;;;;;;;;;;5093803;28;20241;-44
2023/07/11 00:58:23;;;;;;;4.28;1.40;;;;;;;;;;5090241;28;20167;-47
2023/07/11 01:00:51;;;;;;;5.72;1.50;;;;;;;;;;5070093;28;20024;-42
2023/07/11 01:03:18;;;;;;;4.85;1.60;;;;;;;;;;5087696;28;20309;-40
2023/07/11 01:05:44;;;;;;;4.78;1.45;;;;;;;;;;5091756;28;20098;-50
2023/07/11 01:08:12;;;;;;;5.25;1.30;;;;;;;;;;5082475;28;20024;-42
2023/07/11 01:10:39;;;;;;;7.22;2.05;;;;;;;;;;5109273;28;20047;-46
2023/07/11 01:13:06;;;;;;;8.43;1.67;;;;;;;;;;5108358;28;20043;-42
2023/07/11 01:15:33;;;;;;;5.47;1.65;;;;;;;;;;5107938;28;20024;-41
2023/07/11 01:18:00;;;;;;;5.30;1.30;;;;;;;;;;5107417;28;20028;-46
2023/07/11 01:20:26;;;;;;;4.65;1.20;;;;;;;;;;5096675;28;20036;-44
2023/07/11 01:22:55;;;;;;;4.82;1.50;;;;;;;;;;5107814;28;20051;-53
2023/07/11 01:25:23;;;;;;;3.65;1.33;;;;;;;;;;5107800;28;20224;-40
2023/07/11 01:27:50;;;;;;;5.20;1.60;;;;;;;;;;5108498;28;20035;-47
2023/07/11 01:30:19;;;;;;;7.35;1.58;;;;;;;;;;5100850;28;20033;-46
2023/07/11 01:32:45;;;;;;;6.75;1.55;;;;;;;;;;5096247;28;20305;-44
2023/07/11 01:35:12;;;;;;;4.45;1.73;;;;;;;;;;5088114;28;20029;-50
2023/07/11 01:37:39;;;;;;;5.95;2.00;;;;;;;;;;5098617;28;20020;-51
2023/07/11 01:40:06;;;;;;;5.60;2.40;;;;;;;;;;5087430;28;20105;-42
2023/07/11 01:42:33;;;;;;;4.63;2.03;;;;;;;;;;5086724;28;20336;-46
2023/07/11 01:45:00;;;;;;;7.85;1.70;;;;;;;;;;5087302;28;20028;-41
2023/07/11 01:47:27;;;;;;;4.47;1.90;;;;;;;;;;5087193;28;20052;-45
2023/07/11 01:49:54;;;;;;;5.72;1.80;;;;;;;;;;5087999;28;20032;-43
2023/07/11 01:52:22;;;;;;;7.45;1.83;;;;;;;;;;5089740;28;20027;-51
2023/07/11 01:54:51;;;;;;;4.40;2.10;;;;;;;;;;5099156;28;20054;-54
2023/07/11 01:57:18;;;;;;;5.90;2.20;;;;;;;;;;5107192;28;20026;-52
2023/07/11 01:59:46;;;;;;;6.47;2.33;;;;;;;;;;5107096;28;20020;-44
2023/07/11 02:02:12;;;;;;;7.95;2.50;;;;;;;;;;5107256;28;20069;-42
2023/07/11 02:04:39;;;;;;;6.85;2.58;;;;;;;;;;5106565;28;20040;-56
2023/07/11 02:07:06;;;;;;;8.95;2.78;;;;;;;;;;5099144;28;20046;-39
2023/07/11 02:09:35;;;;;;;14.85;3.65;;;;;;;;;;5091278;28;20032;-47
2023/07/11 02:12:01;;;;;;;9.45;2.90;;;;;;;;;;5086677;28;20321;-49
2023/07/11 02:14:30;;;;;;;7.07;2.92;;;;;;;;;;5086587;28;20028;-46
2023/07/11 02:16:57;;;;;;;8.73;3.38;;;;;;;;;;5068762;28;20255;-42
2023/07/11 02:19:24;;;;;;;10.73;3.28;;;;;;;;;;5086767;28;20052;-47
2023/07/11 02:21:52;;;;;;;9.60;2.88;;;;;;;;;;5087104;28;20027;-44
2023/07/11 02:24:22;;;;;;;8.60;2.85;;;;;;;;;;5087059;28;20032;-40
2023/07/11 02:26:49;;;;;;;10.52;2.92;;;;;;;;;;5086093;28;20110;-56
2023/07/11 02:29:16;;;;;;;11.52;3.33;;;;;;;;;;5086662;28;20032;-49
2023/07/11 02:31:42;;;;;;;6.72;2.58;;;;;;;;;;5086152;28;20024;-43
2023/07/11 02:34:10;;;;;;;6.68;2.38;;;;;;;;;;5086819;28;20056;-52
2023/07/11 02:36:36;;;;;;;8.52;2.28;;;;;;;;;;5068252;28;20088;-49
2023/07/11 02:39:03;;;;;;;9.43;2.20;;;;;;;;;;5086668;28;20032;-45
2023/07/11 02:41:30;;;;;;;5.30;2.55;;;;;;;;;;5087374;28;20048;-48
2023/07/11 02:43:57;;;;;;;9.45;2.67;;;;;;;;;;5085853;28;20066;-46
2023/07/11 02:46:23;;;;;;;7.43;1.95;;;;;;;;;;5085977;28;20027;-45
2023/07/11 02:48:50;;;;;;;7.97;2.67;;;;;;;;;;5085671;28;20040;-46
2023/07/11 02:51:17;;;;;;;6.13;2.45;;;;;;;;;;5085635;28;20039;-48
2023/07/11 02:53:44;;;;;;;9.18;2.60;;;;;;;;;;5086113;28;20024;-42
2023/07/11 02:56:11;;;;;;;12.80;2.63;;;;;;;;;;5085946;28;20033;-44
2023/07/11 02:58:37;;;;;;;12.38;2.90;;;;;;;;;;5085800;28;20055;-49
2023/07/11 03:01:07;;;;;;;7.90;2.40;;;;;;;;;;5067503;28;20028;-44
2023/07/11 03:03:36;;;;;;;9.88;2.65;;;;;;;;;;5085782;28;20051;-44
2023/07/11 03:06:02;;;;;;;8.65;3.00;;;;;;;;;;5087493;28;20020;-46
2023/07/11 03:08:29;;;;;;;11.38;2.90;;;;;;;;;;5085138;28;20027;-47
2023/07/11 03:11:00;;;;;;;12.07;3.45;;;;;;;;;;5085020;28;20032;-41
2023/07/11 03:13:27;;;;;;;10.75;3.10;;;;;;;;;;5085382;28;20032;-50
2023/07/11 03:15:54;;;;;;;12.15;2.90;;;;;;;;;;5085792;28;20031;-44
2023/07/11 03:18:20;;;;;;;12.23;3.28;;;;;;;;;;5085346;28;20024;-48
2023/07/11 03:20:47;;;;;;;9.60;3.10;;;;;;;;;;5100358;28;20024;-42
2023/07/11 03:23:15;;;;;;;10.68;3.10;;;;;;;;;;5086489;28;20024;-44
2023/07/11 03:25:42;;;;;;;11.13;3.55;;;;;;;;;;5092682;28;20385;-39
2023/07/11 03:28:09;;;;;;;10.45;3.33;;;;;;;;;;5105807;28;20094;-40
2023/07/11 03:30:35;;;;;;;10.32;3.20;;;;;;;;;;5105766;28;20350;-41
2023/07/11 03:33:02;;;;;;;10.55;3.67;;;;;;;;;;5105144;28;20205;-47
2023/07/11 03:35:29;;;;;;;12.77;3.50;;;;;;;;;;5105748;28;20252;-48
2023/07/11 03:37:59;;;;;;;7.15;3.25;;;;;;;;;;5105220;28;20248;-51
2023/07/11 03:40:25;;;;;;;12.52;3.42;;;;;;;;;;5105536;28;20032;-41
2023/07/11 03:42:52;;;;;;;12.25;3.63;;;;;;;;;;5105042;28;20043;-50
2023/07/11 03:45:19;;;;;;;7.30;3.03;;;;;;;;;;5105205;28;20051;-53
2023/07/11 03:47:45;;;;;;;11.00;3.05;;;;;;;;;;5104833;28;20283;-45
2023/07/11 03:50:12;;;;;;;9.85;3.70;;;;;;;;;;5104963;28;20284;-53
2023/07/11 03:52:38;;;;;;;12.23;3.65;;;;;;;;;;5104332;28;20031;-49
2023/07/11 03:55:05;;;;;;;8.77;2.88;;;;;;;;;;5095412;28;20031;-38
2023/07/11 03:57:32;;;;;;;15.88;3.55;;;;;;;;;;5084244;28;20024;-40
2023/07/11 03:59:58;;;;;;;14.35;3.00;;;;;;;;;;5084718;28;20024;-41
2023/07/11 04:02:25;;;;;;;12.55;3.58;;;;;;;;;;5084475;28;20039;-41
2023/07/11 04:04:51;;;;;;;10.25;3.30;;;;;;;;;;5084663;28;20055;-44
2023/07/11 04:07:18;;;;;;;13.23;3.63;;;;;;;;;;5084541;28;20255;-43
2023/07/11 04:09:45;;;;;;;11.95;3.15;;;;;;;;;;5084676;28;20028;-48
2023/07/11 04:12:11;;;;;;;9.23;3.60;;;;;;;;;;5085346;28;20091;-46
2023/07/11 04:14:38;;;;;;;9.55;3.08;;;;;;;;;;5093624;28;20028;-50
2023/07/11 04:17:05;;;;;;;11.07;3.55;;;;;;;;;;5084300;28;20033;-42
2023/07/11 04:19:31;;;;;;;11.68;3.80;;;;;;;;;;5084090;28;20048;-45
2023/07/11 04:21:58;;;;;;;14.77;3.65;;;;;;;;;;5083901;28;20025;-43
2023/07/11 04:24:24;;;;;;;12.23;3.47;;;;;;;;;;5084185;28;20036;-42
2023/07/11 04:26:51;;;;;;;13.38;3.45;;;;;;;;;;5083683;28;20117;-46
2023/07/11 04:29:18;;;;;;;9.15;3.25;;;;;;;;;;5084091;28;20040;-44
2023/07/11 04:31:44;;;;;;;9.43;2.97;;;;;;;;;;5083468;28;20036;-44
2023/07/11 04:34:11;;;;;;;9.60;3.58;;;;;;;;;;5083961;28;20197;-49
2023/07/11 04:36:37;;;;;;;12.15;3.53;;;;;;;;;;5083982;28;20086;-41
2023/07/11 04:39:04;;;;;;;13.30;3.78;;;;;;;;;;5083944;28;20032;-46
2023/07/11 04:41:30;;;;;;;10.70;3.33;;;;;;;;;;5083719;28;20025;-44
2023/07/11 04:43:57;;;;;;;11.90;3.40;;;;;;;;;;5084027;28;20131;-43
2023/07/11 04:46:25;;;;;;;9.52;2.88;;;;;;;;;;5083832;28;20040;-44
2023/07/11 04:48:52;;;;;;;11.18;3.35;;;;;;;;;;5083658;28;20301;-45
2023/07/11 04:51:18;;;;;;;11.95;3.83;;;;;;;;;;5083887;28;20043;-46
2023/07/11 04:53:45;;;;;;;8.18;2.97;;;;;;;;;;5083831;28;20082;-42
2023/07/11 04:56:13;;;;;;;12.50;3.03;;;;;;;;;;5083493;28;20088;-48
2023/07/11 04:58:39;;;;;;;12.88;3.35;;;;;;;;;;5083587;28;20319;-43
2023/07/11 05:01:08;;;;;;;10.35;2.88;;;;;;;;;;5083600;28;20056;-42
2023/07/11 05:03:35;;;;;;;10.68;3.38;;;;;;;;;;5083460;28;20031;-48
2023/07/11 05:06:02;;;;;;;11.10;3.40;;;;;;;;;;5083597;28;20058;-44
2023/07/11 05:08:29;;;;;;;12.60;3.58;;;;;;;;;;5083472;28;20320;-45
2023/07/11 05:11:01;;;;;;;11.57;3.58;;;;;;;;;;5083366;28;20055;-43
2023/07/11 05:13:28;;;;;;;;;;;;;;;;;;5084139;28;20059;-48
2023/07/11 05:16:04;;;;;;;12.02;3.40;;;;;;;;;;5083565;28;19908;-42
2023/07/11 05:18:31;;;;;;;10.90;3.40;;;;;;;;;;5083522;28;20024;-43
2023/07/11 05:20:58;;;;;;;12.02;3.35;;;;;;;;;;5083540;28;20035;-46
2023/07/11 05:23:26;;;;;;;9.38;2.92;;;;;;;;;;5083476;28;20098;-46
2023/07/11 05:25:54;;;;;;;13.55;3.58;;;;;;;;;;5083079;28;20328;-43
2023/07/11 05:28:21;;;;;;;9.20;3.15;;;;;;;;;;5083233;28;20033;-46
2023/07/11 05:30:47;;;;;;;13.82;3.42;;;;;;;;;;5083336;28;20188;-47
2023/07/11 05:33:14;;;;;;;9.63;3.20;;;;;;;;;;5083117;28;20031;-49
2023/07/11 05:38:34;;;;;;;8.65;2.97;;;;;;;;;;5083548;28;20232;-45
2023/07/11 05:41:01;;;;;;;11.45;3.20;;;;;;;;;;5083381;28;20047;-45
2023/07/11 05:43:28;;;;;;;11.52;2.88;;;;;;;;;;5086618;28;20032;-42
2023/07/11 05:45:55;;;;;;;10.43;2.80;;;;;;;;;;5086753;28;20088;-42
2023/07/11 05:48:21;;;;;;;11.27;3.13;;;;;;;;;;5086858;28;20066;-43
2023/07/11 05:51:11;;;;;;;12.35;3.05;;;;;;;;;;5086739;28;20043;-45
2023/07/11 05:53:38;;;;;;;9.43;2.60;;;;;;;;;;5086680;28;20031;-45
2023/07/11 05:56:06;;;;;;;9.27;2.78;;;;;;;;;;5086622;28;20036;-43
2023/07/11 05:58:33;;;;;;;10.05;2.83;;;;;;;;;;5086377;28;20374;-42
2023/07/11 06:01:00;;;;;;;9.73;2.78;;;;;;;;;;5086822;28;20227;-48
2023/07/11 06:03:27;;;;;;;6.70;2.25;;;;;;;;;;5086404;28;20098;-43
2023/07/11 06:05:54;;;;;;;7.90;2.40;;;;;;;;;;5086333;28;20039;-44
2023/07/11 06:08:21;;;;;;;8.23;2.80;;;;;;;;;;5086380;28;20321;-43
2023/07/11 06:10:48;;;;;;;10.68;2.70;;;;;;;;;;5086511;28;20036;-48
2023/07/11 06:13:15;;;;;;;7.10;2.58;;;;;;;;;;5086158;28;20021;-43
2023/07/11 06:15:42;;;;;;;7.50;2.75;;;;;;;;;;5086373;28;20031;-43
2023/07/11 06:18:08;;;;;;;11.15;2.72;;;;;;;;;;5086206;28;20028;-46
2023/07/11 06:20:35;;;;;;;10.20;2.58;;;;;;;;;;5086885;28;20024;-44
2023/07/11 06:23:02;;;;;;;7.72;2.50;;;;;;;;;;5086138;28;20025;-46
2023/07/11 06:25:28;;;;;;;8.52;2.70;;;;;;;;;;5086203;28;20111;-49
2023/07/11 06:27:55;;;;;;;7.53;2.47;;;;;;;;;;5085987;28;20024;-45
2023/07/11 06:30:22;;;;;;;6.88;2.40;;;;;;;;;;5103462;28;20040;-47
2023/07/11 06:32:48;;;;;;;7.88;2.20;;;;;;;;;;5106135;28;20248;-45
2023/07/11 06:35:15;;;;;;;8.88;2.72;;;;;;;;;;5107433;28;20020;-43
2023/07/11 06:37:42;;;;;;;10.38;2.90;;;;;;;;;;5106342;28;20347;-45
2023/07/11 06:40:09;;;;;;;11.23;2.58;;;;;;;;;;5106814;28;20308;-50
2023/07/11 06:42:35;;;;;;;6.60;2.30;;;;;;;;;;5105938;28;20034;-47
2023/07/11 06:45:02;;;;;;;7.38;2.90;;;;;;;;;;5105872;28;20020;-48
2023/07/11 06:47:29;;;;;;;10.25;2.92;;;;;;;;;;5105923;28;20035;-49
2023/07/11 06:49:56;;;;;;;11.52;3.25;;;;;;;;;;5106179;28;20024;-48
2023/07/11 06:52:22;;;;;;;9.05;2.90;;;;;;;;;;5106063;28;20042;-41
2023/07/11 06:54:49;;;;;;;10.02;3.50;;;;;;;;;;5105702;28;20208;-42
2023/07/11 06:57:18;;;;;;;12.98;3.08;;;;;;;;;;5105655;28;20258;-41
2023/07/11 06:59:47;;;;;;;8.48;2.63;;;;;;;;;;5106036;28;20024;-42
2023/07/11 07:02:14;;;;;;;12.20;3.60;;;;;;;;;;5105341;28;20032;-43
2023/07/11 07:04:40;;;;;;;13.20;2.95;;;;;;;;;;5105871;28;20304;-48
2023/07/11 07:07:07;;;;;;;11.60;3.08;;;;;;;;;;5105805;28;20032;-43
2023/07/11 07:09:34;;;;;;;13.85;2.88;;;;;;;;;;5105720;28;20046;-43
2023/07/11 07:12:00;;;;;;;14.02;3.67;;;;;;;;;;5105374;28;20311;-49
2023/07/11 07:14:27;;;;;;;10.73;3.30;;;;;;;;;;5105678;28;20024;-43
2023/07/11 07:16:54;;;;;;;11.05;3.13;;;;;;;;;;5105474;28;20228;-45
2023/07/11 07:19:20;;;;;;;9.25;3.25;;;;;;;;;;5104480;28;20030;-52
2023/07/11 07:21:47;;;;;;;9.75;3.45;;;;;;;;;;5105271;28;20035;-43
2023/07/11 07:24:14;;;;;;;9.82;3.38;;;;;;;;;;5105457;28;20031;-43
2023/07/11 07:26:41;;;;;;;10.35;3.30;;;;;;;;;;5104946;28;20071;-49
2023/07/11 07:29:08;;;;;;;11.93;3.00;;;;;;;;;;5104945;28;20032;-50
2023/07/11 07:31:34;;;;;;;9.32;3.20;;;;;;;;;;5104966;28;20028;-48
2023/07/11 07:34:01;;;;;;;7.53;2.95;;;;;;;;;;5105234;28;20012;-49
2023/07/11 07:36:28;;;;;;;9.57;2.97;;;;;;;;;;5105250;28;20020;-52
2023/07/11 07:38:54;;;;;;;11.65;3.03;;;;;;;;;;5105173;28;20039;-42
2023/07/11 07:41:21;;;;;;;11.73;2.83;;;;;;;;;;5104795;28;20087;-45
2023/07/11 07:43:48;;;;;;;9.35;2.50;;;;;;;;;;5104877;28;20298;-51
2023/07/11 07:46:15;;;;;;;8.25;3.05;;;;;;;;;;5104881;28;20036;-46
2023/07/11 07:48:43;;;;;;;10.10;2.70;;;;;;;;;;5105017;28;20335;-53
2023/07/11 07:51:12;;;;;;;8.30;2.42;;;;;;;;;;5104520;28;20048;-49
2023/07/11 07:53:39;;;;;;;9.10;2.42;;;;;;;;;;5104593;28;20290;-48
2023/07/11 07:56:16;;;;;;;10.23;2.60;;;;;;;;;;5104525;28;20335;-44
2023/07/11 07:58:43;;;;;;;10.57;2.80;;;;;;;;;;5104799;28;20319;-45
2023/07/11 08:01:10;;;;;;;7.55;2.22;;;;;;;;;;5104643;28;20105;-43
2023/07/11 08:03:37;;;;;;;11.25;2.30;;;;;;;;;;5104329;28;20047;-38
2023/07/11 08:06:04;;;;;;;12.25;2.42;;;;;;;;;;5085608;28;20027;-39
2023/07/11 08:08:30;;;;;;;9.60;2.35;;;;;;;;;;5104424;28;20046;-43
2023/07/11 08:11:01;;;;;;;8.98;2.33;;;;;;;;;;5104094;28;20047;-46
2023/07/11 08:13:28;;;;;;;9.93;2.45;;;;;;;;;;5104237;28;20031;-48
2023/07/11 08:15:54;;;;;;;10.25;1.85;;;;;;;;;;5104339;28;20036;-57
2023/07/11 08:18:21;;;;;;;9.25;2.28;;;;;;;;;;5104175;28;20084;-47
2023/07/11 08:20:48;;;;;;;9.00;2.28;;;;;;;;;;5104396;28;20032;-46
2023/07/11 08:23:15;;;;;;;7.88;2.28;;;;;;;;;;5104330;28;20101;-47
2023/07/11 08:25:42;;;;;;;12.60;2.33;;;;;;;;;;5103992;28;20091;-40
2023/07/11 08:28:09;;;;;;;7.10;2.30;;;;;;;;;;5104149;28;20038;-42
2023/07/11 08:30:36;;;;;;;8.10;1.90;;;;;;;;;;5104594;28;20039;-41
2023/07/11 08:33:02;;;;;;;9.38;2.55;;;;;;;;;;5104022;28;20079;-42
2023/07/11 08:35:29;;;;;;;7.35;2.70;;;;;;;;;;5104866;28;20193;-53
2023/07/11 08:37:56;;;;;;;9.68;2.30;;;;;;;;;;5103979;28;20032;-47
2023/07/11 08:40:26;;;;;;;8.60;2.40;;;;;;;;;;5104413;28;20028;-49
2023/07/11 08:42:52;;;;;;;10.93;2.53;;;;;;;;;;5104069;28;20228;-52
2023/07/11 08:45:28;;;;;;;7.00;2.45;;;;;;;;;;5104305;28;20272;-50
2023/07/11 08:47:59;;;;;;;10.55;2.28;;;;;;;;;;5103854;28;20109;-41
2023/07/11 08:50:28;;;;;;;10.07;2.15;;;;;;;;;;5104313;28;20328;-46
2023/07/11 08:53:02;;;;;;;7.70;2.13;;;;;;;;;;5103890;28;20036;-42
2023/07/11 08:55:31;;;;;;;10.75;2.63;;;;;;;;;;5104408;28;20091;-42
2023/07/11 08:58:05;;;;;;;7.57;1.88;;;;;;;;;;5103885;28;20020;-48
2023/07/11 09:00:33;;;;;;;12.20;2.30;;;;;;;;;;5104075;28;20028;-44
2023/07/11 09:03:10;;;;;;;7.13;2.25;;;;;;;;;;5103890;28;20020;-43
2023/07/11 09:05:55;;;;;;;7.07;2.17;;;;;;;;;;5104233;28;20056;-47
2023/07/11 09:08:22;;;;;;;9.27;2.30;;;;;;;;;;5103688;28;20083;-44
2023/07/11 09:10:49;;;;;;;7.47;2.35;;;;;;;;;;5103698;28;20028;-48
2023/07/11 09:13:27;;;;;;;8.93;2.40;;;;;;;;;;5103353;28;20016;-49
2023/07/11 09:16:06;;;;;;;6.93;2.20;;;;;;;;;;5103633;28;20024;-47
2023/07/11 09:18:51;;;;;;;10.07;2.50;;;;;;;;;;5107461;28;20044;-43
2023/07/11 09:21:17;;;;;;;6.18;2.70;;;;;;;;;;5107574;28;20039;-48
2023/07/11 09:23:59;;;;;;;9.73;3.00;;;;;;;;;;5107392;28;20066;-43
2023/07/11 09:26:28;;;;;;;12.07;2.83;;;;;;;;;;5107451;28;20051;-44
2023/07/11 09:28:59;;;;;;;8.77;3.00;;;;;;;;;;5107453;28;20031;-53
2023/07/11 09:31:26;;;;;;;7.60;2.15;;;;;;;;;;5107337;28;20221;-47
2023/07/11 09:33:55;;;;;;;10.05;2.67;;;;;;;;;;5107389;28;20301;-48
2023/07/11 09:36:22;;;;;;;6.53;2.63;;;;;;;;;;5107109;28;20016;-46
2023/07/11 09:38:50;;;;;;;10.00;2.22;;;;;;;;;;5107378;28;20085;-48
2023/07/11 09:41:17;;;;;;;7.15;2.33;;;;;;;;;;5107159;28;20074;-46
2023/07/11 09:43:43;;;;;;;7.63;2.28;;;;;;;;;;5107142;28;20070;-50
2023/07/11 09:46:14;;;;;;;8.05;2.33;;;;;;;;;;5107332;28;20020;-53
2023/07/11 09:48:41;;;;;;;8.23;2.25;;;;;;;;;;5107008;28;20035;-42
2023/07/11 09:51:24;;;;;;;9.70;2.40;;;;;;;;;;5106966;28;20024;-43
2023/07/11 09:53:55;;;;;;;11.40;2.47;;;;;;;;;;5104021;28;20024;-45
2023/07/11 09:56:23;;;;;;;8.98;2.45;;;;;;;;;;5075704;28;20032;-52
2023/07/11 09:58:59;;;;;;;8.02;2.20;;;;;;;;;;5086652;28;20036;-49
2023/07/11 10:01:27;;;;;;;8.38;2.13;;;;;;;;;;5086405;28;20044;-47
2023/07/11 10:03:55;;;;;;;14.27;2.90;;;;;;;;;;5086559;28;20051;-40
2023/07/11 10:06:31;;;;;;;7.97;2.70;;;;;;;;;;5086403;28;20092;-48
2023/07/11 10:08:58;;;;;;;10.05;2.90;;;;;;;;;;5086304;28;20040;-49
2023/07/11 10:11:24;;;;;;;9.10;2.65;;;;;;;;;;5086274;28;20036;-49
2023/07/11 10:13:56;;;;;;;8.25;2.67;;;;;;;;;;5086486;28;20055;-51
2023/07/11 10:16:22;;;;;;;17.90;3.27;;;;;;;;;;5085987;28;20025;-45
2023/07/11 10:18:52;;;;;;;9.50;2.78;;;;;;;;;;5086280;28;20308;-46
2023/07/11 10:21:21;;;;;;;11.40;3.10;;;;;;;;;;5086109;28;20339;-43
2023/07/11 10:23:49;;;;;;;12.98;3.05;;;;;;;;;;5086345;28;20092;-43
2023/07/11 10:26:23;;;;;;;13.13;3.40;;;;;;;;;;5099066;28;20047;-51
2023/07/11 10:28:55;;;;;;;8.55;2.70;;;;;;;;;;5105243;28;20052;-41
2023/07/11 10:31:26;;;;;;;10.20;3.17;;;;;;;;;;5103386;28;20028;-51
2023/07/11 10:33:56;;;;;;;13.40;3.15;;;;;;;;;;5090827;28;20051;-55
2023/07/11 10:36:30;;;;;;;9.75;3.30;;;;;;;;;;5106278;28;20312;-48
2023/07/11 10:39:01;;;;;;;16.30;3.33;;;;;;;;;;5106175;28;20194;-48
2023/07/11 10:41:46;;;;;;;12.80;3.22;;;;;;;;;;5105886;28;20039;-41
2023/07/11 10:44:17;;;;;;;11.05;3.17;;;;;;;;;;5106084;28;20035;-41
2023/07/11 10:46:46;;;;;;;12.52;2.95;;;;;;;;;;5105830;28;20052;-41
2023/07/11 10:49:15;;;;;;;11.65;3.30;;;;;;;;;;5106008;28;20326;-43
2023/07/11 10:51:51;;;;;;;10.10;2.92;;;;;;;;;;5105980;28;20040;-46
2023/07/11 10:54:25;;;;;;;15.65;3.63;;;;;;;;;;5105872;28;20239;-49
2023/07/11 10:56:56;;;;;;;10.45;3.22;;;;;;;;;;5103719;28;20033;-40
2023/07/11 10:59:23;;;;;;;10.68;3.35;;;;;;;;;;5105752;28;20088;-38
2023/07/11 11:01:53;;;;;;;9.88;4.28;;;;;;;;;;5105730;28;20051;-41
2023/07/11 11:04:26;;;;;;;28.02;23.58;;;;;;;;;;5105824;28;20315;-42
2023/07/11 11:06:56;;;;;;;31.70;28.30;;;;;;;;;;5105719;28;20054;-48
2023/07/11 11:09:31;;;;;;;32.80;20.98;;;;;;;;;;5105778;28;20035;-43
2023/07/11 11:11:57;;;;;;;21.13;14.45;;;;;;;;;;5105579;28;20028;-43
2023/07/11 11:14:30;;;;;;;17.95;14.48;;;;;;;;;;5105511;28;20095;-45
2023/07/11 11:17:15;;;;;;;21.35;14.85;;;;;;;;;;5105326;28;20078;-41
2023/07/11 11:19:48;;;;;;;18.80;11.40;;;;;;;;;;5105796;28;20024;-42
2023/07/11 11:22:37;;;;;;;16.60;8.95;;;;;;;;;;5105420;28;20040;-49
2023/07/11 11:25:09;;;;;;;13.95;7.57;;;;;;;;;;5092813;28;20339;-49
2023/07/11 11:27:50;;;;;;;13.45;8.05;;;;;;;;;;5105574;28;20090;-48
2023/07/11 11:30:17;;;;;;;12.13;7.97;;;;;;;;;;5105089;28;20020;-39
2023/07/11 11:32:52;;;;;;;13.00;8.82;;;;;;;;;;5097203;28;20032;-50
2023/07/11 11:35:34;;;;;;;13.05;6.32;;;;;;;;;;5090940;28;20048;-42
2023/07/11 11:38:05;;;;;;;13.90;5.95;;;;;;;;;;5067373;28;20052;-41
2023/07/11 11:40:34;;;;;;;19.90;6.20;;;;;;;;;;5089710;28;20012;-43
2023/07/11 11:43:06;;;;;;;15.45;4.30;;;;;;;;;;5105426;28;20039;-44
2023/07/11 11:45:33;;;;;;;9.80;3.35;;;;;;;;;;5086940;28;20052;-44
2023/07/11 11:48:02;;;;;;;14.50;3.47;;;;;;;;;;5105151;28;20163;-43
2023/07/11 11:50:30;;;;;;;8.98;3.10;;;;;;;;;;5105259;28;20050;-48
2023/07/11 11:53:14;;;;;;;10.82;2.85;;;;;;;;;;5104866;28;20020;-42
2023/07/11 11:55:46;;;;;;;9.63;2.80;;;;;;;;;;5104796;28;20032;-46
2023/07/11 11:58:17;;;;;;;8.00;2.35;;;;;;;;;;5104907;28;20012;-46
2023/07/11 12:00:47;;;;;;;8.97;3.03;;;;;;;;;;5102469;28;20081;-46
2023/07/11 12:03:49;;;;;;;12.65;2.92;;;;;;;;;;5104787;28;20027;-45
2023/07/11 12:06:28;;;;;;;9.98;2.65;;;;;;;;;;5003234;28;20054;-50
2023/07/11 12:09:17;;;;;;;9.75;2.90;;;;;;;;;;5092898;28;20032;-44
2023/07/11 12:11:44;;;;;;;8.75;2.53;;;;;;;;;;5058285;28;20123;-50
2023/07/11 12:14:18;;;;;;;11.13;2.45;;;;;;;;;;5104538;28;20034;-46
2023/07/11 12:16:47;;;;;;;10.20;2.83;;;;;;;;;;5104426;28;20032;-40
2023/07/11 12:19:28;;;;;;;10.40;2.83;;;;;;;;;;5104547;28;20231;-48
2023/07/11 12:22:00;;;;;;;6.82;2.55;;;;;;;;;;5104139;28;20074;-44
2023/07/11 12:24:47;;;;;;;6.93;2.08;;;;;;;;;;5104444;28;20337;-51
2023/07/11 12:27:17;;;;;;;10.95;2.95;;;;;;;;;;5104190;28;20044;-50
2023/07/11 12:29:47;;;;;;;8.95;2.40;;;;;;;;;;5103971;28;20024;-54
2023/07/11 12:32:29;;;;;;;7.85;2.60;;;;;;;;;;5104004;28;20324;-47
2023/07/11 12:34:56;;;;;;;6.80;2.40;;;;;;;;;;5104042;28;20031;-50
2023/07/11 12:37:27;;;;;;;10.40;2.95;;;;;;;;;;5104369;28;20032;-56
2023/07/11 12:40:17;;;;;;;12.23;2.83;;;;;;;;;;5104180;28;20031;-55
2023/07/11 12:42:50;;;;;;;6.90;2.33;;;;;;;;;;5103832;28;20078;-53
2023/07/11 12:45:18;;;;;;;8.35;2.20;;;;;;;;;;5103997;28;20032;-53
2023/07/11 12:47:46;;;;;;;12.18;2.10;;;;;;;;;;5103806;28;20028;-51
2023/07/11 12:50:36;;;;;;;10.23;2.67;;;;;;;;;;5103878;28;20032;-48
2023/07/11 12:53:03;;;;;;;6.00;2.20;;;;;;;;;;5094355;28;20046;-55
2023/07/11 12:55:30;;;;;;;6.68;2.38;;;;;;;;;;5108134;28;20043;-49
2023/07/11 12:57:57;;;;;;;7.32;2.53;;;;;;;;;;5108151;28;20083;-54
2023/07/11 13:00:27;;;;;;;7.72;2.30;;;;;;;;;;5107899;28;20026;-51
2023/07/11 13:02:55;;;;;;;10.25;2.88;;;;;;;;;;5108025;28;20036;-50
2023/07/11 13:05:23;;;;;;;7.38;2.40;;;;;;;;;;5107914;28;20031;-57
2023/07/11 13:07:53;;;;;;;10.15;3.10;;;;;;;;;;5107867;28;20212;-48
2023/07/11 13:10:26;;;;;;;7.68;2.83;;;;;;;;;;5107787;28;20032;-45
2023/07/11 13:12:53;;;;;;;9.60;2.72;;;;;;;;;;5107947;28;20028;-44
2023/07/11 13:15:21;;;;;;;10.32;2.88;;;;;;;;;;5107476;28;20035;-49
2023/07/11 13:17:51;;;;;;;7.35;3.00;;;;;;;;;;5107734;28;20051;-48
2023/07/11 13:20:17;;;;;;;12.40;3.72;;;;;;;;;;5107560;28;20263;-54
2023/07/11 13:22:44;;;;;;;16.05;3.95;;;;;;;;;;5107907;28;20036;-61
2023/07/11 13:25:17;;;;;;;12.10;3.90;;;;;;;;;;5107501;28;20395;-53
2023/07/11 13:27:47;;;;;;;12.85;3.15;;;;;;;;;;5107394;28;20028;-56
2023/07/11 13:30:18;;;;;;;8.70;3.13;;;;;;;;;;5107403;28;20066;-46
2023/07/11 13:32:45;;;;;;;11.32;3.55;;;;;;;;;;5107499;28;20095;-44
2023/07/11 13:35:16;;;;;;;7.20;2.67;;;;;;;;;;5107265;28;20035;-47
2023/07/11 13:37:47;;;;;;;10.83;3.70;;;;;;;;;;5107296;28;20094;-51
2023/07/11 13:40:32;;;;;;;8.63;3.38;;;;;;;;;;5107187;28;20261;-44
2023/07/11 13:42:59;;;;;;;9.93;3.20;;;;;;;;;;5107263;28;20039;-48
2023/07/11 13:45:26;;;;;;;11.10;3.28;;;;;;;;;;5107181;28;20028;-50
2023/07/11 13:47:53;;;;;;;9.07;3.00;;;;;;;;;;5107111;28;20035;-47
2023/07/11 13:50:24;;;;;;;6.43;2.50;;;;;;;;;;5106916;28;20031;-49
2023/07/11 13:52:52;;;;;;;8.63;3.05;;;;;;;;;;5106984;28;20418;-53
2023/07/11 13:55:21;;;;;;;10.20;3.13;;;;;;;;;;5106646;28;20030;-49
2023/07/11 13:57:48;;;;;;;5.47;2.22;;;;;;;;;;5107044;28;20024;-46
2023/07/11 14:00:16;;;;;;;7.38;2.80;;;;;;;;;;5106806;28;20054;-51
2023/07/11 14:02:43;;;;;;;10.48;3.03;;;;;;;;;;5106367;28;20338;-52
2023/07/11 14:05:15;;;;;;;8.93;2.90;;;;;;;;;;5106156;28;20079;-46
2023/07/11 14:07:42;;;;;;;8.82;2.47;;;;;;;;;;5088966;28;20052;-52
2023/07/11 14:10:09;;;;;;;8.38;2.45;;;;;;;;;;5106893;28;20039;-48
2023/07/11 14:12:36;;;;;;;10.05;2.92;;;;;;;;;;5106788;28;20035;-48
2023/07/11 14:15:13;;;;;;;8.07;2.60;;;;;;;;;;5106726;28;20028;-50
2023/07/11 14:17:39;;;;;;;6.70;2.28;;;;;;;;;;5106780;28;20024;-53
2023/07/11 14:20:06;;;;;;;8.48;2.53;;;;;;;;;;5106754;28;20034;-58
2023/07/11 14:22:33;;;;;;;11.15;2.55;;;;;;;;;;5107055;28;20040;-51
2023/07/11 14:25:01;;;;;;;9.13;2.67;;;;;;;;;;5106654;28;20080;-56
2023/07/11 14:27:27;;;;;;;8.40;2.95;;;;;;;;;;5106792;28;20073;-53
2023/07/11 14:29:54;;;;;;;6.05;2.70;;;;;;;;;;5106021;28;20042;-45
2023/07/11 14:32:21;;;;;;;9.52;2.45;;;;;;;;;;5106965;28;20066;-43
2023/07/11 14:34:47;;;;;;;10.30;3.35;;;;;;;;;;5106081;28;20024;-41
2023/07/11 14:37:15;;;;;;;11.02;3.50;;;;;;;;;;5099233;28;20095;-41
2023/07/11 14:39:41;;;;;;;11.95;3.95;;;;;;;;;;5088693;28;20087;-43
2023/07/11 14:42:31;;;;;;;6.38;2.97;;;;;;;;;;5091475;28;20032;-43
2023/07/11 14:44:57;;;;;;;12.45;4.03;;;;;;;;;;5084644;28;20107;-42
2023/07/11 14:47:25;;;;;;;11.00;3.85;;;;;;;;;;5102549;28;20070;-47
2023/07/11 14:49:52;;;;;;;14.48;4.07;;;;;;;;;;5094467;28;20036;-46
2023/07/11 14:52:24;;;;;;;11.85;3.63;;;;;;;;;;5099155;28;20023;-51